createdAt,value
2023-03-04T00:04:45.233Z,63.00
2023-03-04T00:09:52.365Z,67.27
2023-03-04T00:14:59.788Z,62.70
2023-03-04T00:20:07.197Z,65.83
2023-03-04T00:25:14.383Z,68.20
2023-03-04T00:30:21.231Z,71.50
2023-03-04T00:35:28.228Z,62.90
2023-03-04T00:40:35.373Z,60.00
2023-03-04T00:45:44.364Z,61.13
2023-03-04T00:50:52.851Z,58.17
2023-03-04T00:56:00.641Z,60.40
2023-03-04T01:01:09.078Z,58.40
2023-03-04T01:06:16.126Z,60.30
2023-03-04T01:11:23.728Z,57.07
2023-03-04T01:16:30.622Z,55.57
2023-03-04T01:21:37.591Z,55.27
2023-03-04T01:26:44.593Z,61.57
2023-03-04T01:31:51.570Z,55.93
2023-03-04T01:36:59.680Z,57.80
2023-03-04T01:42:07.602Z,54.63
2023-03-04T01:47:15.095Z,58.80
2023-03-04T01:52:21.996Z,58.77
2023-03-04T01:57:30.094Z,56.63
2023-03-04T02:02:37.164Z,50.77
2023-03-04T02:07:44.969Z,51.87
2023-03-04T02:12:53.398Z,54.30
2023-03-04T02:18:00.999Z,54.13
2023-03-04T02:23:09.356Z,54.70
2023-03-04T02:28:16.553Z,50.33
2023-03-04T02:33:23.608Z,56.50
2023-03-04T02:38:31.128Z,54.40
2023-03-04T02:43:38.331Z,57.10
2023-03-04T02:48:45.436Z,56.53
2023-03-04T02:53:53.181Z,51.57
2023-03-04T02:59:02.608Z,50.47
2023-03-04T03:04:10.075Z,54.97
2023-03-04T03:09:17.561Z,55.40
2023-03-04T03:14:25.048Z,55.37
2023-03-04T03:19:32.344Z,57.20
2023-03-04T03:24:43.336Z,56.23
2023-03-04T03:29:50.439Z,55.53
2023-03-04T03:34:57.675Z,50.23
2023-03-04T03:40:05.284Z,53.77
2023-03-04T03:45:12.947Z,52.33
2023-03-04T03:50:19.989Z,51.37
2023-03-04T03:55:27.183Z,50.43
2023-03-04T04:00:34.208Z,49.80
2023-03-04T04:05:41.259Z,54.63
2023-03-04T04:10:48.213Z,52.33
2023-03-04T04:15:55.268Z,52.63
2023-03-04T04:21:02.235Z,51.47
2023-03-04T04:26:09.452Z,50.23
2023-03-04T04:31:16.660Z,49.47
2023-03-04T04:36:23.690Z,46.80
2023-03-04T04:41:33.829Z,54.20
2023-03-04T04:46:41.954Z,50.80
2023-03-04T04:51:49.174Z,49.60
2023-03-04T04:56:56.361Z,51.53
2023-03-04T05:02:03.557Z,47.27
2023-03-04T05:07:10.464Z,49.20
2023-03-04T05:12:17.339Z,49.63
2023-03-04T05:17:24.460Z,51.03
2023-03-04T05:22:31.658Z,49.17
2023-03-04T05:27:38.533Z,52.33
2023-03-04T05:32:45.485Z,49.90
2023-03-04T05:37:52.438Z,49.77
2023-03-04T05:42:59.470Z,51.27
2023-03-04T05:48:06.945Z,52.23
2023-03-04T05:53:14.526Z,49.33
2023-03-04T05:58:21.862Z,52.13
2023-03-04T06:03:29.145Z,50.40
2023-03-04T06:08:36.104Z,49.23
2023-03-04T06:13:43.911Z,48.97
2023-03-04T06:18:50.971Z,49.23
2023-03-04T06:23:57.963Z,51.30
2023-03-04T06:29:05.601Z,50.83
2023-03-04T06:34:12.847Z,49.53
2023-03-04T06:39:19.788Z,46.93
2023-03-04T06:44:26.727Z,51.47
2023-03-04T06:49:35.019Z,48.80
2023-03-04T06:54:41.932Z,49.53
2023-03-04T06:59:48.839Z,49.30
2023-03-04T07:04:55.835Z,46.87
2023-03-04T07:10:02.774Z,48.67
2023-03-04T07:15:10.257Z,45.53
2023-03-04T07:20:17.376Z,50.10
2023-03-04T07:25:24.206Z,51.37
2023-03-04T07:30:31.136Z,48.50
2023-03-04T07:35:38.602Z,45.27
2023-03-04T07:40:45.648Z,46.30
2023-03-04T07:45:52.849Z,44.47
2023-03-04T07:51:02.313Z,44.90
2023-03-04T07:56:11.364Z,47.87
2023-03-04T08:01:21.228Z,46.37
2023-03-04T08:06:28.954Z,45.10
2023-03-04T08:11:38.378Z,47.07
2023-03-04T08:16:45.444Z,46.53
2023-03-04T08:21:52.886Z,43.97
2023-03-04T08:27:00.112Z,47.63
2023-03-04T08:32:07.536Z,43.50
2023-03-04T08:37:14.600Z,43.03
2023-03-04T08:42:21.576Z,42.17
2023-03-04T08:47:28.440Z,46.70
2023-03-04T08:52:35.407Z,42.97
2023-03-04T08:57:42.541Z,41.70
2023-03-04T09:02:49.427Z,43.00
2023-03-04T09:07:56.385Z,44.33
2023-03-04T09:13:03.406Z,41.60
2023-03-04T09:18:10.839Z,47.47
2023-03-04T09:23:18.408Z,40.67
2023-03-04T09:28:25.329Z,38.23
2023-03-04T09:33:32.369Z,41.07
2023-03-04T09:38:40.047Z,42.10
2023-03-04T09:43:47.885Z,38.97
2023-03-04T09:48:57.107Z,35.57
2023-03-04T09:54:07.412Z,35.23
2023-03-04T09:59:17.338Z,34.20
2023-03-04T10:04:25.387Z,37.20
2023-03-04T10:09:35.260Z,33.30
2023-03-04T10:14:43.414Z,40.47
2023-03-04T10:19:52.453Z,35.53
2023-03-04T10:25:02.854Z,33.63
2023-03-04T10:30:12.623Z,36.90
2023-03-04T10:35:21.894Z,33.20
2023-03-04T10:40:29.235Z,36.50
2023-03-04T10:45:39.243Z,35.47
2023-03-04T10:50:46.275Z,35.13
2023-03-04T10:55:53.312Z,38.27
2023-03-04T11:01:03.045Z,40.40
2023-03-04T11:06:10.864Z,37.03
2023-03-04T11:11:20.039Z,39.43
2023-03-04T11:16:31.480Z,41.57
2023-03-04T11:21:41.230Z,41.37
2023-03-04T11:26:50.845Z,39.30
2023-03-04T11:32:00.827Z,40.80
2023-03-04T11:37:09.061Z,43.23
2023-03-04T11:42:18.153Z,40.27
2023-03-04T11:47:26.968Z,38.53
2023-03-04T11:52:36.496Z,39.13
2023-03-04T11:57:44.526Z,42.43
2023-03-04T12:02:51.639Z,44.87
2023-03-04T12:08:01.267Z,40.67
2023-03-04T12:13:10.872Z,48.23
2023-03-04T12:18:20.948Z,45.80
2023-03-04T12:23:29.922Z,43.50
2023-03-04T12:28:38.639Z,42.53
2023-03-04T12:33:45.350Z,44.67
2023-03-04T12:38:55.211Z,43.47
2023-03-04T12:44:04.857Z,43.40
2023-03-04T12:49:13.048Z,44.77
2023-03-04T12:54:22.762Z,43.20
2023-03-04T12:59:32.685Z,44.37
2023-03-04T13:04:42.559Z,45.03
2023-03-04T13:09:52.872Z,45.00
2023-03-04T13:15:02.850Z,47.23
2023-03-04T13:20:12.127Z,45.70
2023-03-04T13:25:21.485Z,42.10
2023-03-04T13:30:31.255Z,45.83
2023-03-04T13:35:40.822Z,45.63
2023-03-04T13:40:50.411Z,49.73
2023-03-04T13:45:57.592Z,44.80
2023-03-04T13:51:04.796Z,49.57
2023-03-04T13:56:13.075Z,51.13
2023-03-04T14:01:22.967Z,49.27
2023-03-04T14:06:32.222Z,50.30
2023-03-04T14:11:42.929Z,48.13
2023-03-04T14:16:53.072Z,55.03
2023-03-04T14:22:01.831Z,52.90
2023-03-04T14:27:12.219Z,52.33
2023-03-04T14:32:20.434Z,50.43
2023-03-04T14:37:30.965Z,47.67
2023-03-04T14:42:41.029Z,52.93
2023-03-04T14:47:48.891Z,56.17
2023-03-04T14:52:58.243Z,53.07
2023-03-04T14:58:07.844Z,49.23
2023-03-04T15:03:19.273Z,50.00
2023-03-04T15:08:29.104Z,50.53
2023-03-04T15:13:39.505Z,50.23
2023-03-04T15:18:48.724Z,53.37
2023-03-04T15:23:55.900Z,51.10
2023-03-04T15:29:05.537Z,54.13
2023-03-04T15:34:15.506Z,50.53
2023-03-04T15:39:23.641Z,56.67
2023-03-04T15:44:31.090Z,52.93
2023-03-04T15:49:38.163Z,49.90
2023-03-04T15:54:45.671Z,55.33
2023-03-04T15:59:54.130Z,50.97
2023-03-04T16:05:01.240Z,47.53
2023-03-04T16:10:11.404Z,49.53
2023-03-04T16:15:21.025Z,52.97
2023-03-04T16:20:30.383Z,54.37
2023-03-04T16:25:37.541Z,50.70
2023-03-04T16:30:44.758Z,52.53
2023-03-04T16:35:52.631Z,48.03
2023-03-04T16:41:02.566Z,50.33
2023-03-04T16:46:09.920Z,50.53
2023-03-04T16:51:20.378Z,53.43
2023-03-04T16:56:28.076Z,55.53
2023-03-04T17:01:36.947Z,52.90
2023-03-04T17:06:44.370Z,52.07
2023-03-04T17:11:53.100Z,52.67
2023-03-04T17:17:01.037Z,53.10
2023-03-04T17:22:13.805Z,50.50
2023-03-04T17:27:22.884Z,48.87
2023-03-04T17:32:32.836Z,50.77
2023-03-04T17:37:45.852Z,60.27
2023-03-04T17:42:53.722Z,47.57
2023-03-04T17:48:01.422Z,47.43
2023-03-04T17:53:10.078Z,50.03
2023-03-04T17:58:17.968Z,56.70
2023-03-04T18:03:25.924Z,55.30
2023-03-04T18:08:33.375Z,50.33
2023-03-04T18:13:42.130Z,44.83
2023-03-04T18:18:49.442Z,48.60
2023-03-04T18:23:57.181Z,50.77
2023-03-04T18:29:04.528Z,47.50
2023-03-04T18:34:12.523Z,49.23
2023-03-04T18:39:20.929Z,59.87
2023-03-04T18:44:28.480Z,63.67
2023-03-04T18:49:36.172Z,52.03
2023-03-04T18:54:43.696Z,48.87
2023-03-04T18:59:53.456Z,49.93
2023-03-04T19:05:03.834Z,52.23
2023-03-04T19:10:12.711Z,47.90
2023-03-04T19:15:21.207Z,62.07
2023-03-04T19:20:30.321Z,54.60
2023-03-04T19:25:39.590Z,51.87
2023-03-04T19:30:46.834Z,55.60
2023-03-04T19:35:54.352Z,50.83
2023-03-04T19:41:04.142Z,52.23
2023-03-04T19:46:14.511Z,51.73
2023-03-04T19:51:26.518Z,53.67
2023-03-04T19:56:33.441Z,55.50
2023-03-04T20:01:42.655Z,56.90
2023-03-04T20:06:52.287Z,54.07
2023-03-04T20:11:59.646Z,50.80
2023-03-04T20:17:07.351Z,54.13
2023-03-04T20:22:14.683Z,51.43
2023-03-04T20:27:21.989Z,54.43
2023-03-04T20:32:29.756Z,53.53
2023-03-04T20:37:37.014Z,50.47
2023-03-04T20:42:45.182Z,49.30
2023-03-04T20:47:52.481Z,54.00
2023-03-04T20:52:59.757Z,56.20
2023-03-04T20:58:07.827Z,53.70
2023-03-04T21:03:14.819Z,52.43
2023-03-04T21:08:21.804Z,57.73
2023-03-04T21:13:30.490Z,51.17
2023-03-04T21:18:38.631Z,52.63
2023-03-04T21:23:49.423Z,51.73
2023-03-04T21:28:57.411Z,50.73
2023-03-04T21:34:04.778Z,54.23
2023-03-04T21:39:15.087Z,54.17
2023-03-04T21:44:28.487Z,53.03
2023-03-04T21:49:31.235Z,50.50
2023-03-04T21:54:39.224Z,53.93
2023-03-04T21:59:48.160Z,53.87
2023-03-04T22:04:55.456Z,49.67
2023-03-04T22:10:03.357Z,49.70
2023-03-04T22:15:11.546Z,51.27
2023-03-04T22:20:18.899Z,53.87
2023-03-04T22:25:26.352Z,51.33
2023-03-04T22:30:34.394Z,67.17
2023-03-04T22:35:42.039Z,52.20
2023-03-04T22:40:49.447Z,47.30
2023-03-04T22:45:58.065Z,54.23
2023-03-04T22:51:07.453Z,51.77
2023-03-04T22:56:15.751Z,51.27
2023-03-04T23:01:23.006Z,52.63
2023-03-04T23:06:31.936Z,48.93
2023-03-04T23:11:39.752Z,83.53
2023-03-04T23:16:47.915Z,53.17
2023-03-04T23:21:55.047Z,47.33
2023-03-04T23:27:01.948Z,49.60
2023-03-04T23:32:08.924Z,56.33
2023-03-04T23:37:16.088Z,53.23
2023-03-04T23:42:23.251Z,52.23
2023-03-04T23:47:30.208Z,52.53
2023-03-04T23:52:38.727Z,48.07
2023-03-04T23:57:46.740Z,53.03
